Time;durP1;ratioP1;P1;durP2;ratioP2;P2;SDS_P1;SDS_P2;PMS_P1;PMS_P2;Temp;Humidity;BMP_temperature;BMP_pressure;BME280_temperature;BME280_humidity;BME280_pressure;Samples;Min_cycle;Max_cycle;Signal;HPM_P1;HPM_P2
2022/07/20 00:01:16;;;;;;;;;;;;;;;24.29;19.76;95631.00;4999577;28;20147;-62
2022/07/20 00:03:41;;;;;;;;;;;;;;;24.17;20.44;95628.53;4999179;28;19951;-62
2022/07/20 00:06:07;;;;;;;;;;;;;;;24.07;20.36;95624.66;5000790;28;20545;-59
2022/07/20 00:11:22;;;;;;;;;;;;;;;23.91;20.26;95626.50;4998233;28;20024;-62
2022/07/20 00:13:48;;;;;;;;;;;;;;;23.79;20.67;95631.31;5000223;28;19964;-61
2022/07/20 00:16:13;;;;;;;;;;;;;;;23.74;20.50;95625.84;4999875;28;20442;-62
2022/07/20 00:18:38;;;;;;;;;;;;;;;23.63;20.96;95628.50;5000371;28;19963;-64
2022/07/20 00:21:04;;;;;;;;;;;;;;;23.58;20.64;95628.44;5000323;28;20328;-64
2022/07/20 00:23:29;;;;;;;;;;;;;;;23.50;20.95;95626.22;4998667;28;20567;-62
2022/07/20 00:25:54;;;;;;;;;;;;;;;23.37;20.76;95622.06;5000042;28;19973;-64
2022/07/20 00:28:20;;;;;;;;;;;;;;;23.29;21.14;95620.66;4998850;28;20224;-64
2022/07/20 00:30:46;;;;;;;;;;;;;;;23.23;20.78;95627.13;4974262;28;20608;-63
2022/07/20 00:33:11;;;;;;;;;;;;;;;23.12;21.38;95621.56;4996956;28;20000;-62
2022/07/20 00:35:37;;;;;;;;;;;;;;;23.05;20.98;95621.78;4997438;28;20052;-63
2022/07/20 00:38:02;;;;;;;;;;;;;;;22.99;21.52;95622.84;4997572;28;20002;-60
2022/07/20 00:40:27;;;;;;;;;;;;;;;22.93;21.35;95621.16;4997228;28;20006;-61
2022/07/20 00:42:52;;;;;;;;;;;;;;;22.84;21.87;95612.66;4997463;28;20437;-60
2022/07/20 00:45:17;;;;;;;;;;;;;;;22.76;21.73;95618.56;4994403;28;20050;-63
2022/07/20 00:47:43;;;;;;;;;;;;;;;22.67;22.19;95618.19;4998126;28;19968;-62
2022/07/20 00:50:08;;;;;;;;;;;;;;;22.61;21.87;95609.19;4995979;28;20413;-62
2022/07/20 00:52:34;;;;;;;;;;;;;;;22.62;21.47;95610.84;4998562;28;20070;-62
2022/07/20 00:54:59;;;;;;;;;;;;;;;22.58;22.01;95611.59;5003262;28;19970;-64
2022/07/20 00:57:24;;;;;;;;;;;;;;;22.56;21.78;95606.44;4982848;28;19972;-62
2022/07/20 00:59:49;;;;;;;;;;;;;;;22.53;22.19;95612.34;5002169;28;20315;-63
2022/07/20 01:02:14;;;;;;;;;;;;;;;22.49;21.90;95613.91;5001933;28;19982;-64
2022/07/20 01:04:40;;;;;;;;;;;;;;;22.50;21.90;95613.66;5001972;28;20009;-63
2022/07/20 01:07:05;;;;;;;;;;;;;;;22.49;22.04;95606.59;5003095;28;20010;-62
2022/07/20 01:09:31;;;;;;;;;;;;;;;22.45;21.68;95601.94;5002166;28;20003;-64
2022/07/20 01:11:56;;;;;;;;;;;;;;;22.43;21.97;95604.09;5002450;28;19978;-62
2022/07/20 01:14:21;;;;;;;;;;;;;;;22.39;22.58;95604.59;5003389;28;20173;-63
2022/07/20 01:16:46;;;;;;;;;;;;;;;22.45;22.32;95600.06;5002760;28;19996;-62
2022/07/20 01:19:11;;;;;;;;;;;;;;;22.40;22.38;95608.94;5000596;28;20468;-63
2022/07/20 01:21:40;;;;;;;;;;;;;;;22.39;21.97;95607.31;5002711;28;20076;-64
2022/07/20 01:24:15;;;;;;;;;;;;;;;22.35;22.41;95603.47;5002843;28;19988;-63
2022/07/20 01:26:40;;;;;;;;;;;;;;;22.33;22.22;95608.31;5003463;28;19969;-61
2022/07/20 01:29:06;;;;;;;;;;;;;;;22.31;21.89;95604.22;5002175;28;19970;-64
2022/07/20 01:31:31;;;;;;;;;;;;;;;22.32;22.08;95600.44;5002121;28;19964;-62
2022/07/20 01:33:57;;;;;;;;;;;;;;;22.38;21.60;95604.84;5003412;28;19958;-64
2022/07/20 01:36:22;;;;;;;;;;;;;;;22.40;22.10;95600.00;5002539;28;19983;-61
2022/07/20 01:38:47;;;;;;;;;;;;;;;22.31;22.24;95602.34;5003218;28;19951;-61
2022/07/20 01:41:12;;;;;;;;;;;;;;;22.29;22.70;95601.78;5002893;28;19984;-62
2022/07/20 01:43:38;;;;;;;;;;;;;;;22.32;22.61;95597.72;5002468;28;19971;-63
2022/07/20 01:46:03;;;;;;;;;;;;;;;22.34;21.83;95593.72;5002823;28;19988;-62
2022/07/20 01:48:28;;;;;;;;;;;;;;;22.30;22.27;95598.00;5002320;28;20492;-61
2022/07/20 01:50:53;;;;;;;;;;;;;;;22.33;22.43;95602.09;5002015;28;20338;-61
2022/07/20 01:53:19;;;;;;;;;;;;;;;22.26;22.66;95594.16;5002081;28;20348;-64
2022/07/20 01:55:44;;;;;;;;;;;;;;;22.24;22.28;95597.13;5001008;28;20000;-63
2022/07/20 01:58:09;;;;;;;;;;;;;;;22.23;22.26;95597.38;5003206;28;19985;-63
2022/07/20 02:00:34;;;;;;;;;;;;;;;22.22;22.49;95590.31;5002368;28;19981;-61
2022/07/20 02:02:59;;;;;;;;;;;;;;;22.19;22.56;95607.09;4999113;28;20449;-64
2022/07/20 02:05:25;;;;;;;;;;;;;;;22.15;22.24;95599.47;5001953;28;20495;-64
2022/07/20 02:07:50;;;;;;;;;;;;;;;22.09;22.32;95595.06;5002058;28;20101;-62
2022/07/20 02:10:15;;;;;;;;;;;;;;;22.07;22.67;95590.97;5002820;28;19954;-62
2022/07/20 02:12:40;;;;;;;;;;;;;;;22.07;22.52;95590.97;5001939;28;19990;-63
2022/07/20 02:15:06;;;;;;;;;;;;;;;22.03;22.80;95593.38;5001695;28;19970;-63
2022/07/20 02:17:32;;;;;;;;;;;;;;;22.01;22.64;95592.78;5001985;28;20075;-64
2022/07/20 02:19:57;;;;;;;;;;;;;;;22.02;22.73;95591.72;5002425;28;20070;-62
2022/07/20 02:22:22;;;;;;;;;;;;;;;22.06;22.40;95586.63;5002589;28;19964;-63
2022/07/20 02:24:47;;;;;;;;;;;;;;;22.05;22.32;95584.97;5002022;28;19999;-62
2022/07/20 02:27:13;;;;;;;;;;;;;;;22.04;22.30;95589.56;5002642;28;20474;-64
2022/07/20 02:29:38;;;;;;;;;;;;;;;22.04;22.39;95594.16;5001261;28;20444;-64
2022/07/20 02:32:03;;;;;;;;;;;;;;;21.99;22.44;95593.03;5000826;28;19983;-63
2022/07/20 02:34:28;;;;;;;;;;;;;;;21.96;22.80;95592.72;5001763;28;20477;-63
2022/07/20 02:36:54;;;;;;;;;;;;;;;21.96;22.62;95598.16;5001289;28;20031;-64
2022/07/20 02:39:19;;;;;;;;;;;;;;;21.91;22.47;95598.91;5002117;28;20132;-63
2022/07/20 02:41:44;;;;;;;;;;;;;;;21.88;22.69;95594.78;5000881;28;19985;-60
2022/07/20 02:44:09;;;;;;;;;;;;;;;21.87;23.06;95587.72;5000398;28;19978;-62
2022/07/20 02:46:34;;;;;;;;;;;;;;;21.84;23.20;95588.22;5001109;28;20482;-64
2022/07/20 02:49:00;;;;;;;;;;;;;;;21.83;23.22;95583.88;5001185;28;19976;-64
2022/07/20 02:51:25;;;;;;;;;;;;;;;21.85;22.93;95578.19;5001359;28;19964;-62
2022/07/20 02:53:50;;;;;;;;;;;;;;;21.77;23.37;95580.28;5001403;28;20276;-62
2022/07/20 02:56:15;;;;;;;;;;;;;;;21.77;23.27;95580.28;5001378;28;19991;-65
2022/07/20 02:58:41;;;;;;;;;;;;;;;21.79;23.45;95582.72;5001962;28;20039;-63
2022/07/20 03:01:06;;;;;;;;;;;;;;;21.71;23.79;95575.03;5000223;28;20421;-62
2022/07/20 03:03:31;;;;;;;;;;;;;;;21.67;23.79;95585.56;5001796;28;20489;-63
2022/07/20 03:05:56;;;;;;;;;;;;;;;21.69;24.00;95582.59;5001730;28;19982;-62
2022/07/20 03:08:22;;;;;;;;;;;;;;;21.69;23.74;95578.00;5001179;28;20004;-63
2022/07/20 03:10:47;;;;;;;;;;;;;;;21.70;23.69;95579.66;5000806;28;19967;-62
2022/07/20 03:13:12;;;;;;;;;;;;;;;21.68;23.64;95578.28;5000796;28;19990;-62
2022/07/20 03:15:37;;;;;;;;;;;;;;;21.73;23.63;95579.16;5001307;28;20059;-61
2022/07/20 03:18:03;;;;;;;;;;;;;;;21.67;23.61;95574.72;5001009;28;19998;-64
2022/07/20 03:20:29;;;;;;;;;;;;;;;21.66;23.90;95572.28;5000206;28;20208;-63
2022/07/20 03:22:54;;;;;;;;;;;;;;;21.67;23.62;95579.31;5001610;28;20351;-63
2022/07/20 03:25:20;;;;;;;;;;;;;;;21.68;23.26;95568.25;5001118;28;20003;-64
2022/07/20 03:27:45;;;;;;;;;;;;;;;21.60;24.12;95569.50;5000098;28;19971;-63
2022/07/20 03:30:11;;;;;;;;;;;;;;;21.56;23.88;95570.25;5001119;28;19964;-62
2022/07/20 03:32:36;;;;;;;;;;;;;;;21.56;24.08;95581.06;5000459;28;20503;-62
2022/07/20 03:35:01;;;;;;;;;;;;;;;21.48;24.91;95577.72;5001556;28;19988;-63
2022/07/20 03:37:26;;;;;;;;;;;;;;;21.41;24.62;95576.28;5000250;28;19986;-63
2022/07/20 03:39:52;;;;;;;;;;;;;;;21.39;24.50;95579.22;4997945;28;19977;-63
2022/07/20 03:42:17;;;;;;;;;;;;;;;21.38;24.38;95581.09;5001705;28;19963;-63
2022/07/20 03:44:42;;;;;;;;;;;;;;;21.38;24.45;95586.53;5001146;28;20050;-63
2022/07/20 03:47:07;;;;;;;;;;;;;;;21.43;24.11;95582.25;5002045;28;20335;-64
2022/07/20 03:49:33;;;;;;;;;;;;;;;21.44;23.94;95583.88;5001359;28;19980;-63
2022/07/20 03:51:58;;;;;;;;;;;;;;;21.45;23.88;95589.03;5000753;28;20018;-63
2022/07/20 03:54:23;;;;;;;;;;;;;;;21.45;24.27;95589.03;5001094;28;19963;-61
2022/07/20 03:56:48;;;;;;;;;;;;;;;21.42;24.72;95595.00;5001222;28;20371;-64
2022/07/20 03:59:14;;;;;;;;;;;;;;;21.37;24.83;95603.84;5001476;28;20052;-62
2022/07/20 04:01:39;;;;;;;;;;;;;;;21.43;24.34;95596.63;4999176;28;19980;-62
2022/07/20 04:04:04;;;;;;;;;;;;;;;21.43;24.54;95601.19;4999606;28;20734;-64
2022/07/20 04:06:29;;;;;;;;;;;;;;;21.38;25.04;95602.78;5000599;28;19972;-64
2022/07/20 04:08:55;;;;;;;;;;;;;;;21.35;25.26;95597.84;5000009;28;19988;-63
2022/07/20 04:11:20;;;;;;;;;;;;;;;21.22;25.52;95596.28;5000221;28;19962;-63
2022/07/20 04:13:45;;;;;;;;;;;;;;;21.23;25.51;95589.81;5002761;28;19989;-62
2022/07/20 04:16:11;;;;;;;;;;;;;;;21.29;25.43;95596.16;5003396;28;20028;-63
2022/07/20 04:18:36;;;;;;;;;;;;;;;21.34;25.45;95590.78;5004081;28;19962;-63
2022/07/20 04:21:01;;;;;;;;;;;;;;;21.36;25.53;95598.69;5003272;28;20379;-61
2022/07/20 04:23:26;;;;;;;;;;;;;;;21.32;25.75;95592.94;5003883;28;19965;-62
2022/07/20 04:25:51;;;;;;;;;;;;;;;21.38;25.68;95594.66;5003165;28;19984;-63
2022/07/20 04:28:17;;;;;;;;;;;;;;;21.35;26.08;95589.72;5004091;28;20406;-62
2022/07/20 04:30:42;;;;;;;;;;;;;;;21.37;26.12;95592.19;5003965;28;20088;-62
2022/07/20 04:33:07;;;;;;;;;;;;;;;21.32;26.10;95597.53;5003760;28;19983;-63
2022/07/20 04:35:33;;;;;;;;;;;;;;;21.36;25.88;95594.09;5003468;28;20327;-63
2022/07/20 04:37:58;;;;;;;;;;;;;;;21.47;25.64;95595.06;5002743;28;19962;-62
2022/07/20 04:40:23;;;;;;;;;;;;;;;21.45;26.00;95596.38;5003646;28;19981;-62
2022/07/20 04:42:48;;;;;;;;;;;;;;;21.61;26.09;95600.94;5003483;28;19972;-62
2022/07/20 04:45:13;;;;;;;;;;;;;;;21.63;25.81;95606.09;5003993;28;20018;-63
2022/07/20 04:47:39;;;;;;;;;;;;;;;21.76;25.87;95600.31;5003066;28;19967;-62
2022/07/20 04:50:04;;;;;;;;;;;;;;;21.88;25.95;95605.63;5004317;28;20426;-61
2022/07/20 04:52:29;;;;;;;;;;;;;;;21.86;25.24;95598.81;5002191;28;20062;-61
2022/07/20 04:54:54;;;;;;;;;;;;;;;22.07;25.25;95601.81;5003608;28;19984;-63
2022/07/20 04:57:20;;;;;;;;;;;;;;;22.19;25.30;95607.09;5002146;28;20490;-61
2022/07/20 04:59:45;;;;;;;;;;;;;;;22.25;25.20;95601.47;5002836;28;20406;-62
2022/07/20 05:02:10;;;;;;;;;;;;;;;22.36;24.95;95602.41;5001381;28;19971;-62
2022/07/20 05:04:35;;;;;;;;;;;;;;;22.41;25.29;95594.31;5002061;28;19989;-63
2022/07/20 05:07:01;;;;;;;;;;;;;;;22.46;25.09;95611.72;5002381;28;20385;-63
2022/07/20 05:09:26;;;;;;;;;;;;;;;22.58;25.38;95609.72;5002605;28;19978;-63
2022/07/20 05:11:51;;;;;;;;;;;;;;;22.77;24.23;95603.91;5003077;28;19981;-62
2022/07/20 05:14:16;;;;;;;;;;;;;;;22.88;24.47;95604.84;5002945;28;19960;-64
2022/07/20 05:16:42;;;;;;;;;;;;;;;22.84;24.47;95612.66;5002660;28;19986;-64
2022/07/20 05:19:08;;;;;;;;;;;;;;;23.03;24.11;95604.13;5002728;28;19967;-61
2022/07/20 05:21:34;;;;;;;;;;;;;;;23.15;24.14;95607.50;5003323;28;20075;-63
2022/07/20 05:23:59;;;;;;;;;;;;;;;23.32;23.75;95605.75;5002992;28;20466;-62
2022/07/20 05:26:24;;;;;;;;;;;;;;;23.36;23.36;95610.41;5002591;28;19963;-62
2022/07/20 05:28:50;;;;;;;;;;;;;;;23.61;22.97;95608.09;5003862;28;19974;-63
2022/07/20 05:31:15;;;;;;;;;;;;;;;23.80;22.59;95616.66;5003479;28;19986;-64
2022/07/20 05:33:40;;;;;;;;;;;;;;;23.86;21.82;95623.75;5003270;28;19983;-61
2022/07/20 05:36:06;;;;;;;;;;;;;;;23.68;22.44;95623.09;5003448;28;19966;-64
2022/07/20 05:38:31;;;;;;;;;;;;;;;24.05;21.63;95623.28;5003129;28;20413;-61
2022/07/20 05:40:56;;;;;;;;;;;;;;;24.45;21.28;95621.81;5002013;28;20301;-63
2022/07/20 05:43:22;;;;;;;;;;;;;;;24.68;21.13;95625.13;5002480;28;20406;-64
2022/07/20 05:45:47;;;;;;;;;;;;;;;24.47;21.45;95624.28;5002761;28;19976;-64
2022/07/20 05:48:12;;;;;;;;;;;;;;;24.67;21.30;95631.69;4974263;28;20004;-63
2022/07/20 05:50:38;;;;;;;;;;;;;;;24.97;20.81;95626.56;5003078;28;20239;-61
2022/07/20 05:53:03;;;;;;;;;;;;;;;25.17;20.73;95627.66;5001618;28;20619;-63
2022/07/20 05:55:29;;;;;;;;;;;;;;;25.32;20.29;95633.09;5002535;28;19971;-64
2022/07/20 05:57:54;;;;;;;;;;;;;;;25.37;20.82;95626.03;5003465;28;19978;-62
2022/07/20 06:00:19;;;;;;;;;;;;;;;25.62;20.80;95627.13;5002848;28;19971;-62
2022/07/20 06:02:44;;;;;;;;;;;;;;;25.76;20.73;95627.38;5002933;28;19988;-62
2022/07/20 06:05:09;;;;;;;;;;;;;;;25.82;20.50;95627.06;4999742;28;20007;-64
2022/07/20 06:07:35;;;;;;;;;;;;;;;25.85;20.55;95634.69;5002227;28;20409;-64
2022/07/20 06:10:00;;;;;;;;;;;;;;;25.82;20.24;95635.25;5000944;28;20451;-62
2022/07/20 06:12:25;;;;;;;;;;;;;;;26.01;20.49;95634.66;5001909;28;20002;-63
2022/07/20 06:14:50;;;;;;;;;;;;;;;26.28;19.80;95629.94;5002554;28;19944;-65
2022/07/20 06:17:16;;;;;;;;;;;;;;;26.14;19.84;95633.28;5002394;28;20029;-62
2022/07/20 06:19:41;;;;;;;;;;;;;;;26.52;19.51;95623.78;5002488;28;20109;-63
2022/07/20 06:22:06;;;;;;;;;;;;;;;26.53;19.71;95626.25;5002610;28;19945;-62
2022/07/20 06:24:31;;;;;;;;;;;;;;;26.71;20.02;95621.25;5001830;28;19970;-63
2022/07/20 06:26:57;;;;;;;;;;;;;;;26.88;19.65;95627.16;5002115;28;20020;-65
2022/07/20 06:29:22;;;;;;;;;;;;;;;26.99;19.49;95638.00;5002499;28;20382;-64
2022/07/20 06:31:47;;;;;;;;;;;;;;;27.15;19.67;95630.53;5001733;28;19965;-63
2022/07/20 06:34:13;;;;;;;;;;;;;;;27.34;19.06;95627.09;5002664;28;20017;-64
2022/07/20 06:36:38;;;;;;;;;;;;;;;27.45;19.91;95636.81;5002031;28;20010;-62
2022/07/20 06:39:03;;;;;;;;;;;;;;;27.75;19.34;95658.72;5000861;28;20478;-64
2022/07/20 06:41:29;;;;;;;;;;;;;;;27.16;19.95;95673.16;5000503;28;20597;-64
2022/07/20 06:43:54;;;;;;;;;;;;;;;26.96;19.39;95677.63;5000631;28;19976;-63
2022/07/20 06:46:19;;;;;;;;;;;;;;;27.20;19.85;95670.66;5001006;28;19969;-64
2022/07/20 06:48:44;;;;;;;;;;;;;;;27.58;19.84;95675.53;5000633;28;20069;-63
2022/07/20 06:51:10;;;;;;;;;;;;;;;27.71;19.21;95683.09;5001445;28;20518;-64
2022/07/20 06:53:35;;;;;;;;;;;;;;;27.76;18.93;95688.50;5001775;28;20356;-65
2022/07/20 06:56:01;;;;;;;;;;;;;;;27.99;18.46;95694.31;5000513;28;19969;-63
2022/07/20 06:58:26;;;;;;;;;;;;;;;27.71;18.97;95691.31;5001468;28;20059;-63
2022/07/20 07:00:51;;;;;;;;;;;;;;;27.88;19.11;95690.03;4998980;28;20416;-63
2022/07/20 07:03:16;;;;;;;;;;;;;;;27.73;19.34;95691.81;5000985;28;19991;-64
2022/07/20 07:05:42;;;;;;;;;;;;;;;27.99;19.06;95691.56;5000340;28;19964;-62
2022/07/20 07:08:07;;;;;;;;;;;;;;;28.44;18.29;95692.47;4999191;28;20422;-65
2022/07/20 07:10:33;;;;;;;;;;;;;;;28.67;18.38;95707.25;5000805;28;20317;-63
2022/07/20 07:12:58;;;;;;;;;;;;;;;28.89;18.25;95692.97;5001422;28;20044;-63
2022/07/20 07:15:23;;;;;;;;;;;;;;;29.07;17.69;95689.72;5000472;28;22768;-63
2022/07/20 07:17:48;;;;;;;;;;;;;;;28.39;18.42;95696.06;5000591;28;19943;-64
2022/07/20 07:20:14;;;;;;;;;;;;;;;28.32;18.91;95685.50;5001201;28;20426;-63
2022/07/20 07:22:39;;;;;;;;;;;;;;;28.85;18.37;95689.19;5001415;28;19996;-63
2022/07/20 07:25:05;;;;;;;;;;;;;;;29.18;18.55;95681.09;4998158;28;20029;-65
2022/07/20 07:27:30;;;;;;;;;;;;;;;29.56;17.45;95684.84;5000140;28;19933;-65
2022/07/20 07:29:55;;;;;;;;;;;;;;;29.78;17.52;95686.94;5001699;28;19943;-64
2022/07/20 07:32:21;;;;;;;;;;;;;;;29.39;17.59;95680.75;4999610;28;20485;-64
2022/07/20 07:34:46;;;;;;;;;;;;;;;29.56;17.84;95682.94;5001156;28;20387;-63
2022/07/20 07:37:11;;;;;;;;;;;;;;;29.44;17.73;95682.59;5000736;28;20292;-62
2022/07/20 07:39:37;;;;;;;;;;;;;;;29.72;17.03;95677.22;5001209;28;19917;-64
2022/07/20 07:42:02;;;;;;;;;;;;;;;29.45;16.98;95681.47;5000977;28;19962;-64
2022/07/20 07:44:27;;;;;;;;;;;;;;;29.68;17.93;95681.66;4999643;28;19964;-63
2022/07/20 07:46:53;;;;;;;;;;;;;;;30.00;17.19;95687.38;4998745;28;19922;-63
2022/07/20 07:49:18;;;;;;;;;;;;;;;29.99;16.45;95685.78;5002736;28;19932;-63
2022/07/20 07:51:43;;;;;;;;;;;;;;;29.83;16.56;95688.00;5001499;28;19968;-64
2022/07/20 07:54:08;;;;;;;;;;;;;;;30.16;16.13;95685.19;4996689;28;19964;-61
2022/07/20 07:56:34;;;;;;;;;;;;;;;30.39;16.24;95690.78;4996061;28;20224;-63
2022/07/20 07:58:59;;;;;;;;;;;;;;;30.33;16.02;95695.56;5000203;28;19929;-64
2022/07/20 08:01:24;;;;;;;;;;;;;;;29.11;17.44;95702.53;5001313;28;19990;-63
2022/07/20 08:03:50;;;;;;;;;;;;;;;29.58;16.92;95715.53;4999594;28;19998;-62
2022/07/20 08:06:15;;;;;;;;;;;;;;;30.10;15.90;95713.81;5002273;28;20253;-63
2022/07/20 08:08:40;;;;;;;;;;;;;;;30.32;16.31;95713.16;4999595;28;20453;-63
2022/07/20 08:11:05;;;;;;;;;;;;;;;29.41;17.09;95716.09;4997639;28;19947;-63
2022/07/20 08:13:31;;;;;;;;;;;;;;;29.54;17.41;95722.72;4999302;28;20568;-65
2022/07/20 08:15:56;;;;;;;;;;;;;;;29.86;17.01;95723.84;4998164;28;20570;-64
2022/07/20 08:18:21;;;;;;;;;;;;;;;30.54;16.28;95723.44;5001087;28;19937;-59
2022/07/20 08:20:47;;;;;;;;;;;;;;;30.70;15.67;95718.44;4995647;28;20386;-62
2022/07/20 08:23:12;;;;;;;;;;;;;;;30.81;15.74;95724.53;4999200;28;20463;-61
2022/07/20 08:25:37;;;;;;;;;;;;;;;30.65;16.61;95729.53;4998282;28;19929;-59
2022/07/20 08:28:15;;;;;;;;;;;;;;;30.86;16.62;95742.84;5000652;28;19961;-61
2022/07/20 08:30:41;;;;;;;;;;;;;;;30.58;16.16;95746.41;5000667;28;20290;-59
2022/07/20 08:33:06;;;;;;;;;;;;;;;29.87;16.78;95750.16;4998696;28;19960;-61
2022/07/20 08:35:31;;;;;;;;;;;;;;;30.04;16.88;95749.59;4999412;28;19943;-62
2022/07/20 08:37:57;;;;;;;;;;;;;;;29.61;17.66;95756.06;4998912;28;20412;-62
2022/07/20 08:40:22;;;;;;;;;;;;;;;29.09;17.83;95769.69;4999815;28;20165;-64
2022/07/20 08:42:47;;;;;;;;;;;;;;;28.87;18.12;95771.06;4998277;28;19991;-65
2022/07/20 08:45:12;;;;;;;;;;;;;;;28.46;19.12;95786.03;5000981;28;20026;-66
2022/07/20 08:47:39;;;;;;;;;;;;;;;28.20;19.71;95781.66;5002177;28;20063;-75
2022/07/20 08:50:04;;;;;;;;;;;;;;;28.06;20.34;95791.59;5005968;28;19959;-77
2022/07/20 08:52:29;;;;;;;;;;;;;;;27.03;21.20;95788.47;5005281;28;20428;-76
2022/07/20 08:54:55;;;;;;;;;;;;;;;27.23;21.68;95795.78;5004053;28;19992;-76
2022/07/20 08:57:20;;;;;;;;;;;;;;;26.69;22.14;95793.53;5005197;28;19971;-75
2022/07/20 08:59:46;;;;;;;;;;;;;;;26.32;22.73;95792.78;5001929;28;20432;-76
2022/07/20 09:02:11;;;;;;;;;;;;;;;24.94;25.12;95821.22;5003017;28;20420;-76
2022/07/20 09:04:52;;;;;;;;;;;;;;;24.47;25.38;95824.78;4986374;28;20395;-76
2022/07/20 09:07:18;;;;;;;;;;;;;;;23.84;26.91;95824.31;5002268;28;19958;-71
2022/07/20 09:09:43;;;;;;;;;;;;;;;23.50;28.22;95791.94;4984835;28;19980;-71
2022/07/20 09:12:08;;;;;;;;;;;;;;;23.56;27.70;95802.56;5002137;28;19986;-75
2022/07/20 09:14:42;;;;;;;;;;;;;;;23.74;27.38;95800.59;4985906;28;19965;-71
2022/07/20 09:17:14;;;;;;;;;;;;;;;23.87;28.37;95799.34;5006930;28;19987;-70
2022/07/20 09:19:55;;;;;;;;;;;;;;;23.59;26.15;95812.09;5002783;28;19970;-70
2022/07/20 09:22:34;;;;;;;;;;;;;;;23.50;28.31;95800.09;5002167;28;20105;-70
2022/07/20 09:25:12;;;;;;;;;;;;;;;23.82;28.90;95796.56;5002472;28;20113;-69
2022/07/20 09:27:37;;;;;;;;;;;;;;;24.07;28.84;95812.25;5001782;28;19976;-69
2022/07/20 09:30:13;;;;;;;;;;;;;;;24.47;28.27;95789.44;4987762;28;19960;-70
2022/07/20 09:32:52;;;;;;;;;;;;;;;24.89;27.62;95788.53;4985016;28;19982;-69
2022/07/20 09:35:17;;;;;;;;;;;;;;;25.06;27.32;95784.78;5004539;28;20068;-69
2022/07/20 09:37:43;;;;;;;;;;;;;;;24.95;27.65;95786.66;5002524;28;20415;-70
2022/07/20 09:40:08;;;;;;;;;;;;;;;25.41;26.86;95777.78;5002430;28;19999;-69
2022/07/20 09:42:40;;;;;;;;;;;;;;;25.25;27.62;95778.84;5002234;28;20284;-70
2022/07/20 09:45:21;;;;;;;;;;;;;;;25.74;26.06;95788.47;4982861;28;19984;-70
2022/07/20 09:48:02;;;;;;;;;;;;;;;25.16;26.71;95782.09;4997287;28;20008;-69
2022/07/20 09:50:29;;;;;;;;;;;;;;;25.62;26.33;95777.81;5001983;28;20457;-69
2022/07/20 09:52:54;;;;;;;;;;;;;;;25.51;25.94;95781.63;5002404;28;20291;-69
2022/07/20 09:55:19;;;;;;;;;;;;;;;25.87;26.69;95776.19;5002414;28;19975;-69
2022/07/20 09:57:45;;;;;;;;;;;;;;;26.53;27.58;95772.78;5003727;28;19991;-69
2022/07/20 10:00:10;;;;;;;;;;;;;;;26.50;26.75;95779.63;5002246;28;19979;-70
2022/07/20 10:02:35;;;;;;;;;;;;;;;26.40;26.31;95783.22;4988751;28;20066;-69
2022/07/20 10:05:01;;;;;;;;;;;;;;;25.82;27.48;95787.09;5001903;28;19982;-69
2022/07/20 10:07:26;;;;;;;;;;;;;;;25.90;26.74;95783.81;5005692;28;20142;-70
2022/07/20 10:09:51;;;;;;;;;;;;;;;25.99;25.11;95787.63;5002671;28;20077;-69
2022/07/20 10:12:16;;;;;;;;;;;;;;;26.72;23.97;95778.50;5000776;28;19998;-69
2022/07/20 10:14:42;;;;;;;;;;;;;;;27.01;24.56;95781.38;5001646;28;19943;-69
2022/07/20 10:17:07;;;;;;;;;;;;;;;26.74;24.59;95770.84;4986362;28;20504;-69
2022/07/20 10:19:42;;;;;;;;;;;;;;;25.89;24.61;95774.00;5001333;28;20017;-69
2022/07/20 10:22:08;;;;;;;;;;;;;;;26.39;23.49;95773.41;4999872;28;19958;-69
2022/07/20 10:24:35;;;;;;;;;;;;;;;27.19;23.48;95776.38;4992463;28;19978;-70
2022/07/20 10:27:13;;;;;;;;;;;;;;;26.81;23.48;95779.56;5002871;28;20027;-68
2022/07/20 10:29:40;;;;;;;;;;;;;;;27.62;22.98;95770.34;5003291;28;19966;-68
2022/07/20 10:32:17;;;;;;;;;;;;;;;27.71;22.79;95770.59;5004135;28;20018;-69
2022/07/20 10:34:45;;;;;;;;;;;;;;;27.83;24.15;95770.19;5003319;28;19941;-69
2022/07/20 10:37:27;;;;;;;;;;;;;;;28.58;22.32;95771.97;5001968;28;20250;-68
2022/07/20 10:39:53;;;;;;;;;;;;;;;29.48;21.36;95776.84;4999938;28;20427;-68
2022/07/20 10:42:21;;;;;;;;;;;;;;;29.04;21.19;95789.75;4984673;28;19939;-69
2022/07/20 10:44:47;;;;;;;;;;;;;;;29.04;20.49;95767.84;5001884;28;20282;-69
2022/07/20 10:47:31;;;;;;;;;;;;;;;28.49;20.84;95769.03;4985451;28;19945;-69
2022/07/20 10:50:00;;;;;;;;;;;;;;;28.27;22.22;95776.66;4999138;28;19959;-68
2022/07/20 10:52:27;;;;;;;;;;;;;;;28.77;22.54;95767.38;5000975;28;19963;-68
2022/07/20 10:54:52;;;;;;;;;;;;;;;28.96;22.54;95783.03;5002013;28;19950;-69
2022/07/20 10:57:17;;;;;;;;;;;;;;;29.77;20.84;95784.06;5002951;28;19960;-69
2022/07/20 10:59:42;;;;;;;;;;;;;;;29.42;21.05;95783.50;5002160;28;19962;-69
2022/07/20 11:02:08;;;;;;;;;;;;;;;30.28;19.61;95775.28;5001853;28;19935;-69
2022/07/20 11:04:40;;;;;;;;;;;;;;;30.33;20.42;95773.25;4972429;28;20220;-69
2022/07/20 11:07:05;;;;;;;;;;;;;;;29.36;21.08;95781.97;5017444;28;20400;-69
2022/07/20 11:09:31;;;;;;;;;;;;;;;29.56;20.95;95772.59;5001652;28;19954;-69
2022/07/20 11:11:56;;;;;;;;;;;;;;;29.91;19.69;95772.34;4984503;28;19950;-69
2022/07/20 11:14:22;;;;;;;;;;;;;;;29.41;19.47;95773.66;5001932;28;19939;-70
2022/07/20 11:16:53;;;;;;;;;;;;;;;30.08;19.36;95769.81;5001676;28;20425;-69
2022/07/20 11:19:18;;;;;;;;;;;;;;;30.52;19.10;95766.03;5002166;28;19932;-69
2022/07/20 11:21:44;;;;;;;;;;;;;;;30.62;19.72;95767.78;5000897;28;19949;-69
2022/07/20 11:24:28;;;;;;;;;;;;;;;30.37;19.97;95769.88;5000405;28;19917;-69
2022/07/20 11:26:53;;;;;;;;;;;;;;;30.20;21.11;95760.31;5001312;28;20382;-69
2022/07/20 11:29:19;;;;;;;;;;;;;;;29.40;22.10;95763.81;5001445;28;19958;-69
2022/07/20 11:31:44;;;;;;;;;;;;;;;29.78;20.90;95752.78;5001990;28;19977;-69
2022/07/20 11:34:11;;;;;;;;;;;;;;;29.99;20.57;95757.94;5000941;28;19928;-70
2022/07/20 11:36:37;;;;;;;;;;;;;;;30.10;20.26;95752.25;5001081;28;19921;-69
2022/07/20 11:39:05;;;;;;;;;;;;;;;30.37;21.20;95751.50;5001368;28;20000;-69
2022/07/20 11:41:31;;;;;;;;;;;;;;;29.95;20.53;95741.25;5002075;28;19994;-69
2022/07/20 11:43:56;;;;;;;;;;;;;;;30.74;19.80;95743.38;5001418;28;19962;-73
2022/07/20 11:46:22;;;;;;;;;;;;;;;31.08;20.27;95744.84;5001418;28;20420;-73
2022/07/20 11:48:57;;;;;;;;;;;;;;;30.41;20.17;95754.44;5000914;28;20070;-73
2022/07/20 11:51:22;;;;;;;;;;;;;;;30.26;20.53;95745.41;5002142;28;20344;-71
2022/07/20 11:53:48;;;;;;;;;;;;;;;30.93;19.42;95739.69;5001658;28;20006;-70
2022/07/20 11:56:14;;;;;;;;;;;;;;;31.37;18.30;95742.03;5001341;28;20271;-73
2022/07/20 11:58:39;;;;;;;;;;;;;;;31.26;18.13;95739.50;4995232;28;19956;-73
2022/07/20 12:01:06;;;;;;;;;;;;;;;31.68;18.32;95741.31;4984131;28;19980;-73
2022/07/20 12:03:32;;;;;;;;;;;;;;;31.04;17.62;95741.09;4987718;28;19928;-71
2022/07/20 12:06:01;;;;;;;;;;;;;;;30.83;19.34;95741.53;4966716;28;19922;-73
2022/07/20 12:08:27;;;;;;;;;;;;;;;31.08;18.40;95733.84;4965055;28;19965;-73
2022/07/20 12:10:52;;;;;;;;;;;;;;;30.86;18.97;95731.06;4983926;28;20004;-72
2022/07/20 12:13:17;;;;;;;;;;;;;;;31.78;18.28;95723.72;4984262;28;19967;-72
2022/07/20 12:15:51;;;;;;;;;;;;;;;31.86;18.13;95729.28;4984607;28;20459;-72
2022/07/20 12:18:31;;;;;;;;;;;;;;;31.28;19.04;95729.03;4993107;28;19913;-73
2022/07/20 12:20:56;;;;;;;;;;;;;;;31.60;18.87;95732.69;4983869;28;19944;-72
2022/07/20 12:23:24;;;;;;;;;;;;;;;30.82;20.17;95734.41;4984355;28;19928;-73
2022/07/20 12:25:51;;;;;;;;;;;;;;;30.76;20.13;95732.09;4983969;28;20014;-73
2022/07/20 12:28:26;;;;;;;;;;;;;;;30.74;19.95;95723.31;4984970;28;19996;-72
2022/07/20 12:30:51;;;;;;;;;;;;;;;30.20;21.38;95730.13;4965646;28;20642;-72
2022/07/20 12:33:16;;;;;;;;;;;;;;;30.55;20.13;95716.00;4983747;28;20366;-73
2022/07/20 12:35:45;;;;;;;;;;;;;;;30.29;20.94;95722.84;4997146;28;19988;-70
2022/07/20 12:38:10;;;;;;;;;;;;;;;29.67;21.66;95730.22;4993146;28;20130;-72
2022/07/20 12:40:43;;;;;;;;;;;;;;;29.64;21.28;95725.28;5001546;28;19922;-73
2022/07/20 12:43:26;;;;;;;;;;;;;;;29.81;21.39;95732.97;4992865;28;20323;-73
2022/07/20 12:45:52;;;;;;;;;;;;;;;29.60;21.14;95723.47;4994665;28;20409;-72